createdAt,value
2019-06-27T00:00:23.434Z,25.10
2019-06-27T00:02:52.359Z,25.10
2019-06-27T00:05:21.587Z,25.10
2019-06-27T00:07:50.828Z,24.90
2019-06-27T00:10:20.822Z,24.90
2019-06-27T00:12:49.707Z,24.80
2019-06-27T00:15:18.877Z,24.80
2019-06-27T00:17:48.020Z,24.80
2019-06-27T00:20:17.130Z,24.70
2019-06-27T00:22:46.055Z,24.70
2019-06-27T00:25:15.266Z,24.70
2019-06-27T00:27:44.248Z,24.60
2019-06-27T00:30:13.294Z,24.60
2019-06-27T00:32:42.175Z,24.60
2019-06-27T00:35:12.536Z,24.60
2019-06-27T00:37:41.422Z,24.50
2019-06-27T00:40:11.269Z,24.50
2019-06-27T00:42:40.312Z,24.40
2019-06-27T00:45:09.633Z,24.40
2019-06-27T00:47:38.463Z,24.30
2019-06-27T00:50:07.569Z,24.30
2019-06-27T00:52:36.465Z,24.20
2019-06-27T00:55:06.516Z,24.20
2019-06-27T00:57:35.660Z,24.10
2019-06-27T01:00:05.336Z,24.10
2019-06-27T01:02:34.244Z,24.00
2019-06-27T01:05:03.328Z,24.00
2019-06-27T01:07:32.724Z,23.90
2019-06-27T01:10:02.002Z,23.90
2019-06-27T01:12:30.959Z,23.80
2019-06-27T01:15:00.231Z,23.80
2019-06-27T01:17:29.198Z,23.70
2019-06-27T01:19:58.413Z,23.70
2019-06-27T01:22:27.376Z,23.70
2019-06-27T01:24:56.616Z,23.60
2019-06-27T01:27:29.918Z,23.60
2019-06-27T01:29:56.633Z,23.60
2019-06-27T01:32:25.966Z,23.50
2019-06-27T01:34:54.991Z,23.50
2019-06-27T01:37:23.949Z,23.40
2019-06-27T01:39:53.160Z,23.40
2019-06-27T01:42:22.225Z,23.30
2019-06-27T01:45:01.475Z,23.30
2019-06-27T01:48:04.059Z,23.20
2019-06-27T01:50:33.553Z,23.20
2019-06-27T01:53:02.986Z,23.20
2019-06-27T01:55:32.309Z,23.10
2019-06-27T01:58:01.291Z,23.10
2019-06-27T02:00:30.371Z,23.10
2019-06-27T02:02:59.631Z,23.10
2019-06-27T02:05:28.527Z,23.10
2019-06-27T02:07:57.484Z,23.00
2019-06-27T02:10:26.829Z,23.00
2019-06-27T02:12:55.806Z,23.00
2019-06-27T02:15:26.531Z,22.90
2019-06-27T02:17:55.528Z,22.90
2019-06-27T02:20:25.008Z,22.90
2019-06-27T02:22:54.029Z,22.80
2019-06-27T02:25:23.324Z,22.80
2019-06-27T02:28:03.317Z,22.70
2019-06-27T02:30:40.058Z,22.70
2019-06-27T02:33:09.259Z,22.70
2019-06-27T02:35:38.569Z,22.60
2019-06-27T02:38:07.891Z,22.60
2019-06-27T02:40:36.908Z,22.60
2019-06-27T02:43:06.154Z,22.60
2019-06-27T02:45:35.277Z,22.50
2019-06-27T02:48:04.242Z,22.50
2019-06-27T02:50:33.367Z,22.40
2019-06-27T02:53:02.392Z,22.40
2019-06-27T02:55:31.875Z,22.40
2019-06-27T02:58:01.035Z,22.30
2019-06-27T03:00:30.167Z,22.30
2019-06-27T03:02:59.383Z,22.20
2019-06-27T03:05:28.343Z,22.10
2019-06-27T03:07:57.297Z,22.10
2019-06-27T03:10:26.311Z,22.10
2019-06-27T03:12:55.451Z,22.00
2019-06-27T03:15:24.442Z,21.90
2019-06-27T03:17:53.371Z,21.90
2019-06-27T03:20:22.307Z,21.80
2019-06-27T03:22:51.333Z,21.80
2019-06-27T03:25:20.270Z,21.80
2019-06-27T03:27:49.204Z,21.80
2019-06-27T03:30:18.270Z,23.40
2019-06-27T03:32:47.446Z,21.70
2019-06-27T03:35:16.517Z,21.60
2019-06-27T03:37:45.763Z,21.60
2019-06-27T03:42:43.635Z,21.60
2019-06-27T03:45:15.874Z,21.50
2019-06-27T03:47:43.585Z,21.50
2019-06-27T03:50:12.567Z,21.50
2019-06-27T03:52:41.687Z,21.50
2019-06-27T03:55:11.005Z,21.40
2019-06-27T03:57:44.277Z,21.40
2019-06-27T04:00:12.875Z,21.40
2019-06-27T04:02:41.794Z,21.40
2019-06-27T04:05:11.150Z,21.40
2019-06-27T04:07:40.144Z,21.30
2019-06-27T04:10:09.561Z,21.30
2019-06-27T04:12:38.901Z,21.30
2019-06-27T04:15:07.993Z,21.30
2019-06-27T04:17:37.001Z,21.40
2019-06-27T04:20:06.296Z,21.40
2019-06-27T04:22:35.267Z,21.40
2019-06-27T04:25:04.548Z,21.30
2019-06-27T04:27:33.744Z,21.30
2019-06-27T04:30:02.654Z,21.30
2019-06-27T04:32:31.621Z,21.30
2019-06-27T04:35:00.649Z,21.30
2019-06-27T04:37:29.568Z,21.20
2019-06-27T04:39:58.820Z,21.20
2019-06-27T04:42:27.883Z,21.20
2019-06-27T04:44:56.709Z,21.20
2019-06-27T04:47:26.079Z,21.20
2019-06-27T04:49:55.196Z,21.10
2019-06-27T04:52:24.023Z,21.10
2019-06-27T04:54:53.333Z,21.10
2019-06-27T04:57:22.174Z,21.10
2019-06-27T04:59:53.790Z,21.10
2019-06-27T05:02:22.413Z,21.10
2019-06-27T05:04:51.232Z,21.10
2019-06-27T05:07:20.100Z,21.20
2019-06-27T05:09:48.903Z,21.10
2019-06-27T05:12:17.877Z,21.10
2019-06-27T05:14:47.179Z,21.10
2019-06-27T05:17:16.486Z,21.10
2019-06-27T05:19:45.302Z,21.10
2019-06-27T05:22:14.115Z,21.10
2019-06-27T05:27:14.574Z,21.20
2019-06-27T05:29:43.939Z,21.20
2019-06-27T05:32:12.781Z,21.20
2019-06-27T05:34:41.913Z,21.30
2019-06-27T05:37:12.544Z,21.40
2019-06-27T05:39:41.832Z,21.40
2019-06-27T05:42:10.832Z,21.40
2019-06-27T05:44:39.998Z,21.40
2019-06-27T05:47:09.301Z,21.40
2019-06-27T05:49:38.175Z,21.40
2019-06-27T05:52:06.980Z,21.30
2019-06-27T05:54:35.984Z,21.30
2019-06-27T05:57:05.503Z,21.40
2019-06-27T05:59:34.586Z,21.40
2019-06-27T06:02:03.661Z,21.30
2019-06-27T06:04:33.013Z,21.30
2019-06-27T06:07:01.834Z,21.30
2019-06-27T06:09:33.041Z,21.40
2019-06-27T06:12:01.814Z,21.40
2019-06-27T06:14:30.811Z,21.30
2019-06-27T06:17:00.063Z,21.30
2019-06-27T06:19:28.967Z,21.40
2019-06-27T06:21:57.783Z,21.40
2019-06-27T06:24:27.092Z,21.40
2019-06-27T06:26:56.092Z,21.50
2019-06-27T06:29:25.542Z,21.50
2019-06-27T06:31:54.674Z,21.60
2019-06-27T06:34:24.221Z,21.50
2019-06-27T06:36:53.232Z,21.60
2019-06-27T06:39:22.167Z,21.70
2019-06-27T06:41:51.096Z,21.80
2019-06-27T06:44:19.992Z,21.80
2019-06-27T06:46:49.061Z,21.90
2019-06-27T06:49:17.991Z,22.00
2019-06-27T06:54:17.792Z,22.00
2019-06-27T06:56:46.725Z,22.10
2019-06-27T06:59:15.620Z,22.10
2019-06-27T07:01:45.843Z,22.00
2019-06-27T07:04:18.121Z,22.00
2019-06-27T07:06:47.102Z,22.00
2019-06-27T07:09:16.275Z,22.10
2019-06-27T07:11:45.860Z,22.10
2019-06-27T07:14:14.764Z,22.10
2019-06-27T07:16:44.119Z,22.10
2019-06-27T07:19:13.248Z,22.10
2019-06-27T07:21:42.377Z,22.20
2019-06-27T07:24:11.389Z,22.20
2019-06-27T07:26:40.367Z,22.30
2019-06-27T07:29:09.322Z,22.30
2019-06-27T07:31:38.543Z,22.30
2019-06-27T07:34:07.655Z,22.40
2019-06-27T07:36:36.683Z,22.40
2019-06-27T07:39:06.245Z,22.50
2019-06-27T07:41:35.377Z,22.50
2019-06-27T07:44:04.240Z,22.50
2019-06-27T07:46:33.615Z,22.50
2019-06-27T07:49:02.594Z,22.60
2019-06-27T07:51:31.541Z,22.70
2019-06-27T07:54:00.896Z,22.70
2019-06-27T07:56:30.351Z,22.70
2019-06-27T07:58:59.138Z,22.80
2019-06-27T08:01:35.106Z,22.90
2019-06-27T08:03:58.847Z,22.90
2019-06-27T08:06:27.803Z,23.00
2019-06-27T08:08:57.116Z,23.10
2019-06-27T08:11:25.993Z,23.10
2019-06-27T08:13:54.815Z,23.10
2019-06-27T08:16:23.638Z,23.20
2019-06-27T08:18:52.797Z,23.20
2019-06-27T08:21:21.663Z,23.30
2019-06-27T08:23:50.490Z,23.40
2019-06-27T08:26:19.311Z,23.40
2019-06-27T08:28:48.759Z,23.50
2019-06-27T08:31:17.563Z,23.50
2019-06-27T08:33:46.577Z,23.60
2019-06-27T08:36:15.841Z,23.60
2019-06-27T08:38:44.799Z,23.50
2019-06-27T08:41:14.213Z,23.50
2019-06-27T08:43:43.287Z,23.60
2019-06-27T08:46:12.098Z,23.60
2019-06-27T08:48:40.916Z,23.60
2019-06-27T08:51:10.123Z,23.60
2019-06-27T08:53:38.977Z,23.60
2019-06-27T08:56:07.932Z,23.60
2019-06-27T08:58:37.261Z,23.50
2019-06-27T09:01:06.323Z,23.60
2019-06-27T09:03:35.267Z,23.60
2019-06-27T09:06:04.186Z,23.60
2019-06-27T09:08:33.053Z,23.60
2019-06-27T09:11:01.940Z,23.70
2019-06-27T09:13:30.772Z,23.70
2019-06-27T09:15:59.695Z,23.80
2019-06-27T09:18:28.645Z,23.80
2019-06-27T09:20:57.449Z,23.70
2019-06-27T09:23:26.624Z,23.80
2019-06-27T09:25:55.586Z,23.80
2019-06-27T09:28:24.455Z,24.00
2019-06-27T09:30:53.496Z,24.10
2019-06-27T09:33:22.574Z,24.10
2019-06-27T09:35:51.795Z,24.10
2019-06-27T09:38:21.125Z,24.10
2019-06-27T09:40:50.383Z,24.10
2019-06-27T09:43:19.639Z,24.20
2019-06-27T09:45:48.475Z,24.30
2019-06-27T09:48:17.792Z,24.30
2019-06-27T09:50:46.945Z,24.30
2019-06-27T09:53:15.835Z,24.30
2019-06-27T09:55:47.354Z,24.40
2019-06-27T09:58:15.948Z,24.40
2019-06-27T10:00:45.056Z,24.40
2019-06-27T10:03:13.986Z,24.30
2019-06-27T10:05:42.849Z,24.40
2019-06-27T10:08:13.317Z,24.50
2019-06-27T10:10:42.410Z,24.60
2019-06-27T10:13:11.562Z,24.50
2019-06-27T10:15:42.364Z,23.70
2019-06-27T10:18:11.268Z,24.60
2019-06-27T10:20:42.554Z,24.70
2019-06-27T10:23:11.232Z,24.70
2019-06-27T10:25:40.094Z,24.70
2019-06-27T10:28:08.910Z,24.80
2019-06-27T10:30:40.777Z,24.80
2019-06-27T10:33:09.690Z,24.80
2019-06-27T10:38:15.506Z,24.90
2019-06-27T10:40:44.706Z,25.00
2019-06-27T10:43:15.179Z,25.10
2019-06-27T10:45:44.038Z,25.20
2019-06-27T10:48:13.011Z,25.20
2019-06-27T10:50:41.945Z,25.20
2019-06-27T10:53:10.987Z,25.20
2019-06-27T10:55:39.839Z,25.30
2019-06-27T10:58:08.661Z,25.30
2019-06-27T11:00:39.251Z,25.30
2019-06-27T11:03:15.786Z,25.30
2019-06-27T11:05:38.927Z,25.40
2019-06-27T11:08:07.793Z,25.40
2019-06-27T11:10:36.917Z,25.40
2019-06-27T11:13:05.766Z,25.50
2019-06-27T11:15:37.687Z,25.60
2019-06-27T11:18:06.861Z,25.70
2019-06-27T11:20:35.881Z,25.60
2019-06-27T11:23:05.074Z,25.70
2019-06-27T11:25:34.000Z,25.70
2019-06-27T11:28:02.879Z,25.80
2019-06-27T11:30:31.814Z,25.80
2019-06-27T11:33:01.025Z,25.80
2019-06-27T11:35:30.225Z,25.90
2019-06-27T11:37:59.144Z,25.90
2019-06-27T11:40:28.124Z,26.00
2019-06-27T11:45:47.532Z,26.20
2019-06-27T11:48:16.695Z,26.20
2019-06-27T11:50:45.991Z,26.10
2019-06-27T11:53:14.996Z,26.10
2019-06-27T11:55:43.782Z,26.10
2019-06-27T11:58:12.590Z,26.10
2019-06-27T12:00:41.563Z,26.20
2019-06-27T12:03:10.759Z,26.20
2019-06-27T12:05:39.736Z,26.30
2019-06-27T12:08:11.068Z,26.30
2019-06-27T12:10:39.289Z,26.30
2019-06-27T12:13:08.109Z,26.40
2019-06-27T12:15:36.968Z,26.40
2019-06-27T12:18:06.256Z,26.50
2019-06-27T12:20:35.373Z,26.60
2019-06-27T12:23:04.727Z,26.70
2019-06-27T12:25:33.735Z,26.70
2019-06-27T12:28:02.525Z,26.80
2019-06-27T12:30:31.675Z,26.80
2019-06-27T12:33:00.498Z,26.80
2019-06-27T12:35:29.651Z,26.80
2019-06-27T12:37:58.473Z,26.90
2019-06-27T12:40:27.448Z,26.80
2019-06-27T12:42:56.570Z,26.80
2019-06-27T12:45:25.891Z,26.90
2019-06-27T12:47:54.689Z,26.90
2019-06-27T12:50:23.794Z,27.00
2019-06-27T12:52:52.639Z,27.10
2019-06-27T12:55:21.516Z,27.10
2019-06-27T12:57:50.501Z,27.20
2019-06-27T13:00:19.733Z,27.10
2019-06-27T13:02:48.692Z,27.20
2019-06-27T13:05:20.500Z,27.30
2019-06-27T13:07:48.104Z,27.30
2019-06-27T13:10:17.122Z,27.40
2019-06-27T13:12:46.350Z,27.50
2019-06-27T13:15:15.531Z,27.50
2019-06-27T13:17:45.090Z,27.50
2019-06-27T13:20:15.414Z,27.50
2019-06-27T13:22:44.283Z,27.60
2019-06-27T13:25:13.496Z,27.80
2019-06-27T13:27:42.449Z,27.80
2019-06-27T13:30:11.579Z,27.80
2019-06-27T13:32:40.432Z,27.80
2019-06-27T13:35:09.592Z,27.80
2019-06-27T13:37:38.415Z,28.00
2019-06-27T13:40:08.270Z,28.00
2019-06-27T13:42:38.718Z,28.00
2019-06-27T13:45:08.596Z,28.00
2019-06-27T13:47:37.893Z,28.10
2019-06-27T13:50:07.236Z,28.10
2019-06-27T13:52:36.230Z,28.20
2019-06-27T13:55:06.375Z,28.40
2019-06-27T13:57:35.611Z,28.60
2019-06-27T14:00:05.625Z,28.60
2019-06-27T14:02:34.851Z,28.90
2019-06-27T14:05:04.117Z,29.00
2019-06-27T14:07:33.056Z,29.50
2019-06-27T14:10:01.896Z,29.50
2019-06-27T14:12:31.003Z,29.70
2019-06-27T14:15:00.562Z,30.00
2019-06-27T14:17:29.612Z,30.40
2019-06-27T14:19:58.416Z,30.70
2019-06-27T14:22:33.339Z,30.70
2019-06-27T14:24:57.748Z,30.70
2019-06-27T14:27:26.954Z,30.70
2019-06-27T14:29:56.716Z,30.70
2019-06-27T14:32:26.140Z,30.60
2019-06-27T14:34:55.608Z,31.00
2019-06-27T14:37:25.126Z,31.30
2019-06-27T14:40:02.590Z,31.20
2019-06-27T14:45:07.181Z,31.50
2019-06-27T14:47:58.817Z,31.80
2019-06-27T14:53:10.408Z,32.20
2019-06-27T14:58:10.310Z,32.00
2019-06-27T15:00:43.467Z,31.90
2019-06-27T15:03:18.263Z,31.90
2019-06-27T15:06:02.850Z,32.00
2019-06-27T15:08:57.422Z,32.60
2019-06-27T15:11:34.282Z,32.80
2019-06-27T15:14:03.192Z,32.90
2019-06-27T15:16:31.997Z,33.10
2019-06-27T15:19:01.155Z,32.80
2019-06-27T15:21:30.487Z,32.70
2019-06-27T15:23:59.299Z,33.20
2019-06-27T15:26:28.339Z,33.50
2019-06-27T15:28:57.407Z,33.10
2019-06-27T15:31:26.499Z,32.80
2019-06-27T15:33:55.386Z,32.70
2019-06-27T15:36:25.076Z,32.70
2019-06-27T15:38:54.066Z,32.70
2019-06-27T15:41:23.425Z,32.80
2019-06-27T15:43:52.761Z,33.10
2019-06-27T15:46:21.869Z,33.10
2019-06-27T15:48:51.118Z,33.00
2019-06-27T15:51:20.348Z,33.00
2019-06-27T15:53:49.212Z,32.90
2019-06-27T15:56:18.112Z,32.80
2019-06-27T15:58:47.842Z,33.00
2019-06-27T16:01:16.988Z,32.90
2019-06-27T16:03:46.405Z,32.90
2019-06-27T16:06:15.533Z,33.10
2019-06-27T16:08:44.487Z,33.10
2019-06-27T16:11:13.932Z,33.20
2019-06-27T16:13:43.024Z,32.70
2019-06-27T16:16:12.182Z,32.70
2019-06-27T16:18:41.164Z,33.10
2019-06-27T16:21:10.363Z,33.00
2019-06-27T16:23:39.575Z,33.20
2019-06-27T16:26:08.468Z,33.20
2019-06-27T16:28:37.882Z,32.90
2019-06-27T16:31:07.202Z,32.70
2019-06-27T16:33:36.116Z,32.60
2019-06-27T16:36:05.338Z,32.60
2019-06-27T16:38:35.233Z,32.90
2019-06-27T16:41:04.483Z,33.00
2019-06-27T16:43:33.400Z,33.20
2019-06-27T16:46:23.525Z,32.80
2019-06-27T16:48:48.490Z,32.70
2019-06-27T16:51:20.347Z,32.80
2019-06-27T16:53:48.316Z,32.70
2019-06-27T16:56:17.320Z,32.70
2019-06-27T16:58:46.290Z,33.00
2019-06-27T17:01:15.269Z,32.90
2019-06-27T17:03:44.129Z,33.00
2019-06-27T17:06:12.976Z,33.10
2019-06-27T17:08:42.176Z,33.10
2019-06-27T17:11:11.341Z,33.10
2019-06-27T17:13:40.257Z,33.20
2019-06-27T17:16:09.232Z,33.00
2019-06-27T17:18:38.148Z,33.00
2019-06-27T17:21:07.276Z,33.00
2019-06-27T17:23:36.151Z,33.10
2019-06-27T17:26:11.172Z,33.20
2019-06-27T17:28:35.945Z,33.50
2019-06-27T17:31:05.194Z,33.50
2019-06-27T17:33:34.123Z,33.20
2019-06-27T17:36:03.031Z,33.00
2019-06-27T17:38:32.170Z,33.40
2019-06-27T17:41:00.927Z,33.30
2019-06-27T17:43:30.014Z,33.40
2019-06-27T17:45:58.904Z,33.00
2019-06-27T17:48:27.876Z,32.80
2019-06-27T17:50:57.039Z,32.60
2019-06-27T17:53:25.959Z,32.70
2019-06-27T17:55:54.984Z,33.20
2019-06-27T17:58:24.003Z,33.30
2019-06-27T18:00:53.187Z,33.10
2019-06-27T18:03:22.163Z,33.00
2019-06-27T18:05:50.966Z,32.80
2019-06-27T18:08:19.752Z,32.50
2019-06-27T18:10:48.679Z,32.50
2019-06-27T18:13:17.767Z,32.30
2019-06-27T18:15:46.668Z,32.20
2019-06-27T18:18:15.505Z,31.80
2019-06-27T18:20:44.319Z,31.80
2019-06-27T18:23:13.248Z,31.60
2019-06-27T18:25:42.451Z,31.30
2019-06-27T18:28:11.314Z,31.20
2019-06-27T18:30:40.654Z,31.20
2019-06-27T18:33:09.600Z,31.00
2019-06-27T18:35:38.533Z,30.80
2019-06-27T18:38:07.481Z,30.50
2019-06-27T18:40:36.364Z,30.40
2019-06-27T18:43:05.506Z,29.80
2019-06-27T18:45:34.717Z,29.30
2019-06-27T18:48:03.514Z,28.50
2019-06-27T18:50:32.393Z,28.40
2019-06-27T18:53:01.196Z,28.10
2019-06-27T18:55:30.599Z,27.80
2019-06-27T18:57:59.541Z,27.60
2019-06-27T19:00:28.464Z,27.60
2019-06-27T19:02:57.429Z,27.60
2019-06-27T19:05:26.479Z,27.60
2019-06-27T19:07:55.498Z,27.60
2019-06-27T19:10:24.519Z,27.60
2019-06-27T19:12:53.972Z,27.40
2019-06-27T19:15:22.913Z,27.20
2019-06-27T19:17:51.796Z,26.90
2019-06-27T19:20:29.179Z,26.80
2019-06-27T19:23:23.168Z,26.60
2019-06-27T19:25:53.327Z,26.40
2019-06-27T19:28:22.385Z,26.20
2019-06-27T19:31:23.802Z,26.10
2019-06-27T19:33:52.611Z,25.90
2019-06-27T19:36:21.746Z,25.90
2019-06-27T19:38:50.879Z,25.70
2019-06-27T19:41:19.764Z,25.70
2019-06-27T19:43:48.930Z,25.60
2019-06-27T19:46:17.908Z,25.50
2019-06-27T19:48:46.912Z,25.30
2019-06-27T19:51:35.319Z,25.30
2019-06-27T19:54:04.452Z,25.20
2019-06-27T19:56:33.333Z,25.10
2019-06-27T19:59:02.613Z,25.00
2019-06-27T20:01:31.375Z,24.90
2019-06-27T20:04:00.139Z,24.80
2019-06-27T20:06:28.909Z,24.70
2019-06-27T20:08:57.762Z,24.60
2019-06-27T20:11:27.644Z,24.40
2019-06-27T20:13:56.562Z,24.40
2019-06-27T20:16:25.360Z,24.40
2019-06-27T20:18:54.215Z,24.20
2019-06-27T20:21:22.994Z,24.10
2019-06-27T20:23:51.903Z,24.10
2019-06-27T20:26:20.939Z,24.00
2019-06-27T20:28:49.975Z,23.90
2019-06-27T20:31:20.845Z,23.80
2019-06-27T20:33:49.474Z,23.80
2019-06-27T20:36:18.244Z,23.70
2019-06-27T20:38:47.068Z,23.70
2019-06-27T20:41:15.937Z,23.60
2019-06-27T20:43:44.943Z,23.60
2019-06-27T20:46:13.905Z,23.50
2019-06-27T20:48:42.699Z,23.50
2019-06-27T20:53:40.076Z,23.30
2019-06-27T20:56:09.011Z,23.30
2019-06-27T20:58:37.819Z,23.20
2019-06-27T21:01:06.924Z,23.10
2019-06-27T21:03:35.865Z,23.10
2019-06-27T21:06:04.816Z,23.10
2019-06-27T21:08:47.194Z,23.00
2019-06-27T21:11:04.257Z,23.00
2019-06-27T21:13:33.336Z,22.90
2019-06-27T21:16:02.401Z,22.80
2019-06-27T21:18:31.459Z,22.80
2019-06-27T21:21:00.419Z,22.70
2019-06-27T21:23:29.428Z,22.70
2019-06-27T21:25:58.800Z,22.60
2019-06-27T21:28:27.575Z,22.60
2019-06-27T21:30:56.509Z,22.50
2019-06-27T21:33:25.582Z,22.50
2019-06-27T21:35:54.647Z,22.40
2019-06-27T21:38:23.521Z,22.40
2019-06-27T21:40:52.414Z,22.40
2019-06-27T21:43:21.270Z,22.30
2019-06-27T21:45:50.163Z,22.30
2019-06-27T21:48:18.995Z,22.30
2019-06-27T21:50:47.926Z,22.20
2019-06-27T21:53:17.052Z,22.10
2019-06-27T21:55:45.935Z,22.10
2019-06-27T21:58:14.816Z,22.00
2019-06-27T22:00:43.922Z,22.00
2019-06-27T22:03:12.966Z,21.90
2019-06-27T22:05:42.083Z,21.90
2019-06-27T22:08:11.018Z,21.90
2019-06-27T22:10:39.956Z,21.90
2019-06-27T22:13:09.007Z,21.90
2019-06-27T22:15:37.959Z,21.70
2019-06-27T22:18:06.870Z,21.70
2019-06-27T22:20:38.665Z,21.60
2019-06-27T22:23:06.463Z,21.60
2019-06-27T22:25:40.540Z,21.50
2019-06-27T22:28:06.412Z,21.50
2019-06-27T22:30:35.291Z,21.40
2019-06-27T22:33:04.241Z,21.40
2019-06-27T22:35:33.152Z,21.40
2019-06-27T22:38:19.815Z,21.30
2019-06-27T22:41:06.415Z,21.20
2019-06-27T22:43:53.011Z,21.20
2019-06-27T22:46:39.563Z,21.10
2019-06-27T22:49:07.780Z,21.00
2019-06-27T22:51:57.673Z,21.00
2019-06-27T22:54:26.817Z,21.00
2019-06-27T22:56:55.789Z,20.90
2019-06-27T22:59:24.651Z,20.80
2019-06-27T23:01:53.856Z,20.70
2019-06-27T23:04:22.640Z,20.70
2019-06-27T23:06:51.732Z,20.60
2019-06-27T23:09:20.784Z,20.60
2019-06-27T23:11:49.822Z,20.50
2019-06-27T23:14:18.961Z,20.40
2019-06-27T23:16:47.977Z,20.30
2019-06-27T23:19:17.244Z,20.30
2019-06-27T23:21:46.243Z,20.30
2019-06-27T23:24:15.011Z,20.20
2019-06-27T23:26:44.044Z,20.10
2019-06-27T23:29:12.835Z,20.00
2019-06-27T23:31:41.604Z,19.90
2019-06-27T23:34:10.463Z,19.90
2019-06-27T23:36:39.236Z,19.90
2019-06-27T23:39:08.320Z,19.80
2019-06-27T23:41:37.349Z,19.80
2019-06-27T23:44:06.387Z,19.80
2019-06-27T23:46:39.700Z,19.70
2019-06-27T23:49:09.016Z,19.60
2019-06-27T23:51:37.879Z,19.60
2019-06-27T23:54:06.814Z,19.50
2019-06-27T23:56:36.042Z,19.40
2019-06-27T23:59:04.975Z,19.40
